Terminal Aerodrome Forecast
Issued by NWS

Home | Current Version | Previous Version | Graphics & Text | Print | Product List | Glossary On
Versions: 1 2 3 4 5 6 7 8 9 10 11 12 13
000
FTUS43 KOAX 302320
TAFCDR
TAF
KCDR 302320Z 3100/3124 19010KT P6SM SCT035
     FM310200 16008KT P6SM SCT300
     FM310800 16008KT P6SM BKN100
     FM311400 27012KT P6SM BKN150=

USA.gov is the U.S. government's official web portal to all federal, state and local government web resources and services.